An Xiu Shan — BRQV — position and weather

sailwx.info

Track history (hours):
 
Tides and Currents Weather Stations Pressure Air Temp Water Temp Dewpoint Dewpoint Depression Visibility Wind Speed Wind Dir Waves Ship Positions

An Xiu Shan

Last reported at 2017-Apr-27 01:16 UTC. Time now 2017-Apr-28 15:54 UTC.
Position N 31°17' E 121°45'.

Length 199 m; draft 7.1 m.

Type: Cargo ship. MMSI: 413195000.

Date/timePositionNaut miles runAvg speedWind from/ knotsBaromVisibWave heightAir tempDewpointWater temp
2017-Apr-27 01:16N 31°17' E 121°45'512.1
2017-Apr-27 00:52N 31°20' E 121°41'410.6
2017-Apr-27 00:29N 31°22' E 121°37'510.8
2017-Apr-27 00:00N 31°25' E 121°31'611.5
2017-Apr-26 23:30N 31°29' E 121°26'510.8
2017-Apr-26 23:00N 31°32' E 121°21'713.0
2017-Apr-26 22:30N 31°37' E 121°16'713.9
2017-Apr-26 22:00N 31°41' E 121°10'714.1
2017-Apr-26 21:30N 31°46' E 121°04'713.0
2017-Apr-26 21:00N 31°47' E 120°56'612.1
2017-Apr-26 20:30N 31°53' E 120°53'611.7
2017-Apr-26 20:00N 31°58' E 120°51'510.2
2017-Apr-26 19:28N 32°01' E 120°45'5 9.8
2017-Apr-26 18:59N 31°60' E 120°39'4 9.1
2017-Apr-26 18:30N 32°00' E 120°34'610.3
2017-Apr-26 17:56N 32°02' E 120°28'510.8
2017-Apr-26 17:28N 31°60' E 120°22'3 0.1
2017-Apr-25 05:19N 31°58' E 120°19'310.0
2017-Apr-25 04:59N 31°60' E 120°22'4 9.1
2017-Apr-25 04:30N 32°02' E 120°27'3 5.5
2017-Apr-25 04:00N 32°02' E 120°30'4 8.0
2017-Apr-25 03:30N 32°01' E 120°34'53 6.9
2017-Apr-24 19:45N 31°30' E 121°26'4 4.7
2017-Apr-24 18:56N 31°27' E 121°29'6 8.6
2017-Apr-24 18:18N 31°24' E 121°34'4 9.5
2017-Apr-24 17:52N 31°22' E 121°38'  
2017-Apr-20 18:46N 24°30' E 118°50'513.3
2017-Apr-20 18:23N 24°27' E 118°46'513.3
2017-Apr-20 18:00N 24°23' E 118°42'713.1
2017-Apr-20 17:28N 24°18' E 118°36'613.2
2017-Apr-20 17:00N 24°14' E 118°32'713.0
2017-Apr-20 16:30N 24°09' E 118°27'613.1
2017-Apr-20 16:00N 24°05' E 118°22'612.8
2017-Apr-20 15:30N 23°60' E 118°17'  
Track history (hours):
 
Tides and Currents Weather Stations Pressure Air Temp Water Temp Dewpoint Dewpoint Depression Visibility Wind Speed Wind Dir Waves Ship Positions

An Xiu Shan

Last reported at 2017-Apr-27 01:16 UTC. Time now 2017-Apr-28 15:54 UTC.
Position N 31°17' E 121°45'.

Length 199 m; draft 7.1 m.

Type: Cargo ship. MMSI: 413195000.

Date/timePositionNaut miles runAvg speedWind from/ knotsBaromVisibWave heightAir tempDewpointWater temp
2017-Apr-27 01:16N 31°17' E 121°45'512.1
2017-Apr-27 00:52N 31°20' E 121°41'410.6
2017-Apr-27 00:29N 31°22' E 121°37'510.8
2017-Apr-27 00:00N 31°25' E 121°31'611.5
2017-Apr-26 23:30N 31°29' E 121°26'510.8
2017-Apr-26 23:00N 31°32' E 121°21'713.0
2017-Apr-26 22:30N 31°37' E 121°16'713.9
2017-Apr-26 22:00N 31°41' E 121°10'714.1
2017-Apr-26 21:30N 31°46' E 121°04'713.0
2017-Apr-26 21:00N 31°47' E 120°56'612.1
2017-Apr-26 20:30N 31°53' E 120°53'611.7
2017-Apr-26 20:00N 31°58' E 120°51'510.2
2017-Apr-26 19:28N 32°01' E 120°45'5 9.8
2017-Apr-26 18:59N 31°60' E 120°39'4 9.1
2017-Apr-26 18:30N 32°00' E 120°34'610.3
2017-Apr-26 17:56N 32°02' E 120°28'510.8
2017-Apr-26 17:28N 31°60' E 120°22'3 0.1
2017-Apr-25 05:19N 31°58' E 120°19'310.0
2017-Apr-25 04:59N 31°60' E 120°22'4 9.1
2017-Apr-25 04:30N 32°02' E 120°27'3 5.5
2017-Apr-25 04:00N 32°02' E 120°30'4 8.0
2017-Apr-25 03:30N 32°01' E 120°34'53 6.9
2017-Apr-24 19:45N 31°30' E 121°26'4 4.7
2017-Apr-24 18:56N 31°27' E 121°29'6 8.6
2017-Apr-24 18:18N 31°24' E 121°34'4 9.5
2017-Apr-24 17:52N 31°22' E 121°38'  
2017-Apr-20 18:46N 24°30' E 118°50'513.3
2017-Apr-20 18:23N 24°27' E 118°46'513.3
2017-Apr-20 18:00N 24°23' E 118°42'713.1
2017-Apr-20 17:28N 24°18' E 118°36'613.2
2017-Apr-20 17:00N 24°14' E 118°32'713.0
2017-Apr-20 16:30N 24°09' E 118°27'613.1
2017-Apr-20 16:00N 24°05' E 118°22'612.8
2017-Apr-20 15:30N 23°60' E 118°17'  

Dump ship's entire track history